sensor_id;sensor_type;location;lat;lon;timestamp;P1;durP1;ratioP1;P2;durP2;ratioP2
19004;SDS011;9635;52.078;8.648;2023-11-19T00:03:22;3.92;;;3.60;;
19004;SDS011;9635;52.078;8.648;2023-11-19T00:08:25;5.05;;;3.72;;
19004;SDS011;9635;52.078;8.648;2023-11-19T00:13:31;3.28;;;2.97;;
19004;SDS011;9635;52.078;8.648;2023-11-19T00:18:33;1.92;;;1.83;;
19004;SDS011;9635;52.078;8.648;2023-11-19T00:23:37;1.88;;;1.77;;
19004;SDS011;9635;52.078;8.648;2023-11-19T00:28:41;1.70;;;1.60;;
19004;SDS011;9635;52.078;8.648;2023-11-19T00:33:45;1.50;;;1.40;;
19004;SDS011;9635;52.078;8.648;2023-11-19T00:38:51;2.00;;;1.90;;
19004;SDS011;9635;52.078;8.648;2023-11-19T00:43:56;1.75;;;1.65;;
19004;SDS011;9635;52.078;8.648;2023-11-19T00:48:58;1.75;;;1.40;;
19004;SDS011;9635;52.078;8.648;2023-11-19T00:54:02;2.42;;;1.58;;
19004;SDS011;9635;52.078;8.648;2023-11-19T00:59:07;1.85;;;1.65;;
19004;SDS011;9635;52.078;8.648;2023-11-19T01:04:10;2.20;;;2.00;;
19004;SDS011;9635;52.078;8.648;2023-11-19T01:09:13;4.15;;;2.30;;
19004;SDS011;9635;52.078;8.648;2023-11-19T01:14:18;2.40;;;2.20;;
19004;SDS011;9635;52.078;8.648;2023-11-19T01:19:22;3.08;;;2.70;;
19004;SDS011;9635;52.078;8.648;2023-11-19T01:24:25;2.00;;;1.80;;
19004;SDS011;9635;52.078;8.648;2023-11-19T01:29:31;2.15;;;1.73;;
19004;SDS011;9635;52.078;8.648;2023-11-19T01:34:34;2.92;;;2.15;;
19004;SDS011;9635;52.078;8.648;2023-11-19T01:39:38;2.90;;;2.70;;
19004;SDS011;9635;52.078;8.648;2023-11-19T01:44:42;4.22;;;3.83;;
19004;SDS011;9635;52.078;8.648;2023-11-19T01:49:57;6.25;;;4.45;;
19004;SDS011;9635;52.078;8.648;2023-11-19T01:55:01;6.60;;;5.57;;
19004;SDS011;9635;52.078;8.648;2023-11-19T02:00:07;8.90;;;7.03;;
19004;SDS011;9635;52.078;8.648;2023-11-19T02:05:14;9.68;;;7.38;;
19004;SDS011;9635;52.078;8.648;2023-11-19T02:10:18;8.23;;;6.95;;
19004;SDS011;9635;52.078;8.648;2023-11-19T02:15:22;5.97;;;4.88;;
19004;SDS011;9635;52.078;8.648;2023-11-19T02:20:25;6.15;;;3.30;;
19004;SDS011;9635;52.078;8.648;2023-11-19T02:25:29;5.72;;;4.85;;
19004;SDS011;9635;52.078;8.648;2023-11-19T02:30:36;5.43;;;4.55;;
19004;SDS011;9635;52.078;8.648;2023-11-19T02:35:39;6.13;;;5.30;;
19004;SDS011;9635;52.078;8.648;2023-11-19T02:40:42;6.97;;;5.35;;
19004;SDS011;9635;52.078;8.648;2023-11-19T02:45:46;9.77;;;6.68;;
19004;SDS011;9635;52.078;8.648;2023-11-19T02:50:49;10.90;;;9.25;;
19004;SDS011;9635;52.078;8.648;2023-11-19T02:55:54;14.27;;;9.60;;
19004;SDS011;9635;52.078;8.648;2023-11-19T03:01:04;16.77;;;12.88;;
19004;SDS011;9635;52.078;8.648;2023-11-19T03:06:14;15.10;;;11.17;;
19004;SDS011;9635;52.078;8.648;2023-11-19T03:11:17;15.07;;;10.48;;
19004;SDS011;9635;52.078;8.648;2023-11-19T03:16:21;22.40;;;14.43;;
19004;SDS011;9635;52.078;8.648;2023-11-19T03:21:27;19.65;;;13.23;;
19004;SDS011;9635;52.078;8.648;2023-11-19T03:26:31;26.38;;;17.48;;
19004;SDS011;9635;52.078;8.648;2023-11-19T03:31:36;29.33;;;18.17;;
19004;SDS011;9635;52.078;8.648;2023-11-19T03:36:44;28.73;;;17.63;;
19004;SDS011;9635;52.078;8.648;2023-11-19T03:41:47;30.98;;;19.63;;
19004;SDS011;9635;52.078;8.648;2023-11-19T03:46:51;30.02;;;20.30;;
19004;SDS011;9635;52.078;8.648;2023-11-19T03:51:54;33.53;;;20.52;;
19004;SDS011;9635;52.078;8.648;2023-11-19T03:56:57;33.50;;;20.05;;
19004;SDS011;9635;52.078;8.648;2023-11-19T04:02:02;33.65;;;22.50;;
19004;SDS011;9635;52.078;8.648;2023-11-19T04:07:05;34.22;;;22.05;;
19004;SDS011;9635;52.078;8.648;2023-11-19T04:12:08;36.35;;;20.70;;
19004;SDS011;9635;52.078;8.648;2023-11-19T04:17:13;29.83;;;18.42;;
19004;SDS011;9635;52.078;8.648;2023-11-19T04:22:16;21.38;;;13.13;;
19004;SDS011;9635;52.078;8.648;2023-11-19T04:27:19;26.73;;;16.75;;
19004;SDS011;9635;52.078;8.648;2023-11-19T04:32:23;25.25;;;17.05;;
19004;SDS011;9635;52.078;8.648;2023-11-19T04:37:26;20.42;;;11.88;;
19004;SDS011;9635;52.078;8.648;2023-11-19T04:42:29;23.63;;;12.73;;
19004;SDS011;9635;52.078;8.648;2023-11-19T04:47:34;16.98;;;11.48;;
19004;SDS011;9635;52.078;8.648;2023-11-19T04:52:37;26.60;;;11.65;;
19004;SDS011;9635;52.078;8.648;2023-11-19T04:57:43;19.88;;;12.65;;
19004;SDS011;9635;52.078;8.648;2023-11-19T05:02:47;19.88;;;9.90;;
19004;SDS011;9635;52.078;8.648;2023-11-19T05:07:51;14.43;;;7.57;;
19004;SDS011;9635;52.078;8.648;2023-11-19T05:12:53;19.65;;;7.13;;
19004;SDS011;9635;52.078;8.648;2023-11-19T05:17:59;9.98;;;3.47;;
19004;SDS011;9635;52.078;8.648;2023-11-19T05:23:02;14.93;;;5.18;;
19004;SDS011;9635;52.078;8.648;2023-11-19T05:28:04;18.38;;;4.25;;
19004;SDS011;9635;52.078;8.648;2023-11-19T05:33:09;13.18;;;4.00;;
19004;SDS011;9635;52.078;8.648;2023-11-19T05:38:12;11.98;;;3.55;;
19004;SDS011;9635;52.078;8.648;2023-11-19T05:43:15;15.70;;;4.00;;
19004;SDS011;9635;52.078;8.648;2023-11-19T05:48:21;17.20;;;4.57;;
19004;SDS011;9635;52.078;8.648;2023-11-19T05:53:24;23.75;;;4.80;;
19004;SDS011;9635;52.078;8.648;2023-11-19T05:58:27;11.60;;;3.50;;
19004;SDS011;9635;52.078;8.648;2023-11-19T06:03:32;17.02;;;4.30;;
19004;SDS011;9635;52.078;8.648;2023-11-19T06:08:35;15.25;;;4.28;;
19004;SDS011;9635;52.078;8.648;2023-11-19T06:13:38;18.30;;;4.20;;
19004;SDS011;9635;52.078;8.648;2023-11-19T06:18:43;27.88;;;5.13;;
19004;SDS011;9635;52.078;8.648;2023-11-19T06:23:46;8.25;;;3.38;;
19004;SDS011;9635;52.078;8.648;2023-11-19T06:28:50;14.23;;;2.95;;
19004;SDS011;9635;52.078;8.648;2023-11-19T06:33:54;16.55;;;3.72;;
19004;SDS011;9635;52.078;8.648;2023-11-19T06:38:57;16.50;;;3.97;;
19004;SDS011;9635;52.078;8.648;2023-11-19T06:44:00;25.27;;;6.07;;
19004;SDS011;9635;52.078;8.648;2023-11-19T06:49:04;21.35;;;4.63;;
19004;SDS011;9635;52.078;8.648;2023-11-19T06:54:08;27.17;;;6.03;;
19004;SDS011;9635;52.078;8.648;2023-11-19T06:59:11;18.27;;;3.88;;
19004;SDS011;9635;52.078;8.648;2023-11-19T07:04:15;24.17;;;6.55;;
19004;SDS011;9635;52.078;8.648;2023-11-19T07:09:18;24.48;;;5.13;;
19004;SDS011;9635;52.078;8.648;2023-11-19T07:14:22;24.70;;;6.57;;
19004;SDS011;9635;52.078;8.648;2023-11-19T07:19:27;29.08;;;4.80;;
19004;SDS011;9635;52.078;8.648;2023-11-19T07:24:30;29.35;;;4.38;;
19004;SDS011;9635;52.078;8.648;2023-11-19T07:29:33;24.02;;;4.18;;
19004;SDS011;9635;52.078;8.648;2023-11-19T07:34:40;26.60;;;5.30;;
19004;SDS011;9635;52.078;8.648;2023-11-19T07:39:43;29.27;;;5.82;;
19004;SDS011;9635;52.078;8.648;2023-11-19T07:44:46;25.02;;;5.05;;
19004;SDS011;9635;52.078;8.648;2023-11-19T07:49:50;20.42;;;4.28;;
19004;SDS011;9635;52.078;8.648;2023-11-19T07:54:53;27.95;;;4.28;;
19004;SDS011;9635;52.078;8.648;2023-11-19T07:59:56;18.77;;;3.33;;
19004;SDS011;9635;52.078;8.648;2023-11-19T08:05:01;13.93;;;2.78;;
19004;SDS011;9635;52.078;8.648;2023-11-19T08:10:04;18.42;;;3.28;;
19004;SDS011;9635;52.078;8.648;2023-11-19T08:15:11;29.35;;;6.03;;
19004;SDS011;9635;52.078;8.648;2023-11-19T08:20:15;17.70;;;4.40;;
19004;SDS011;9635;52.078;8.648;2023-11-19T08:25:18;23.15;;;3.35;;
19004;SDS011;9635;52.078;8.648;2023-11-19T08:30:21;34.10;;;7.75;;
19004;SDS011;9635;52.078;8.648;2023-11-19T08:35:26;19.85;;;4.07;;
19004;SDS011;9635;52.078;8.648;2023-11-19T08:40:29;34.92;;;6.60;;
19004;SDS011;9635;52.078;8.648;2023-11-19T08:45:32;34.72;;;6.15;;
19004;SDS011;9635;52.078;8.648;2023-11-19T08:50:38;28.10;;;6.18;;
19004;SDS011;9635;52.078;8.648;2023-11-19T08:55:41;24.40;;;5.03;;
19004;SDS011;9635;52.078;8.648;2023-11-19T09:00:44;28.40;;;5.05;;
19004;SDS011;9635;52.078;8.648;2023-11-19T09:05:49;23.90;;;4.55;;
19004;SDS011;9635;52.078;8.648;2023-11-19T09:10:52;29.15;;;5.43;;
19004;SDS011;9635;52.078;8.648;2023-11-19T09:15:54;32.67;;;5.20;;
19004;SDS011;9635;52.078;8.648;2023-11-19T09:21:02;21.58;;;4.90;;
19004;SDS011;9635;52.078;8.648;2023-11-19T09:26:05;27.65;;;5.32;;
19004;SDS011;9635;52.078;8.648;2023-11-19T09:31:14;25.08;;;4.38;;
19004;SDS011;9635;52.078;8.648;2023-11-19T09:36:19;37.30;;;5.82;;
19004;SDS011;9635;52.078;8.648;2023-11-19T09:41:22;32.28;;;5.03;;
19004;SDS011;9635;52.078;8.648;2023-11-19T09:46:26;20.75;;;4.30;;
19004;SDS011;9635;52.078;8.648;2023-11-19T09:51:32;16.70;;;4.47;;
19004;SDS011;9635;52.078;8.648;2023-11-19T09:56:35;21.80;;;4.35;;
19004;SDS011;9635;52.078;8.648;2023-11-19T10:01:40;24.23;;;4.75;;
19004;SDS011;9635;52.078;8.648;2023-11-19T10:06:45;34.38;;;7.15;;
19004;SDS011;9635;52.078;8.648;2023-11-19T10:11:48;24.23;;;5.85;;
19004;SDS011;9635;52.078;8.648;2023-11-19T10:16:52;23.88;;;4.82;;
19004;SDS011;9635;52.078;8.648;2023-11-19T10:21:58;34.33;;;5.88;;
19004;SDS011;9635;52.078;8.648;2023-11-19T10:27:06;19.50;;;4.82;;
19004;SDS011;9635;52.078;8.648;2023-11-19T10:32:10;22.27;;;4.43;;
19004;SDS011;9635;52.078;8.648;2023-11-19T10:37:29;36.67;;;6.28;;
19004;SDS011;9635;52.078;8.648;2023-11-19T10:42:33;28.58;;;5.78;;
19004;SDS011;9635;52.078;8.648;2023-11-19T10:47:36;33.03;;;5.10;;
19004;SDS011;9635;52.078;8.648;2023-11-19T10:52:45;28.17;;;5.47;;
19004;SDS011;9635;52.078;8.648;2023-11-19T10:57:50;22.92;;;4.50;;
19004;SDS011;9635;52.078;8.648;2023-11-19T11:02:55;21.48;;;3.92;;
19004;SDS011;9635;52.078;8.648;2023-11-19T11:08:04;30.40;;;4.95;;
19004;SDS011;9635;52.078;8.648;2023-11-19T11:13:09;30.20;;;4.93;;
19004;SDS011;9635;52.078;8.648;2023-11-19T11:18:13;27.08;;;6.18;;
19004;SDS011;9635;52.078;8.648;2023-11-19T11:23:26;31.58;;;6.88;;
19004;SDS011;9635;52.078;8.648;2023-11-19T11:28:40;23.30;;;4.88;;
19004;SDS011;9635;52.078;8.648;2023-11-19T11:33:57;29.50;;;4.28;;
19004;SDS011;9635;52.078;8.648;2023-11-19T11:39:13;35.55;;;6.38;;
19004;SDS011;9635;52.078;8.648;2023-11-19T11:44:17;26.48;;;4.32;;
19004;SDS011;9635;52.078;8.648;2023-11-19T11:49:26;36.15;;;5.55;;
19004;SDS011;9635;52.078;8.648;2023-11-19T11:54:33;34.65;;;5.22;;
19004;SDS011;9635;52.078;8.648;2023-11-19T11:59:46;29.48;;;3.95;;
19004;SDS011;9635;52.078;8.648;2023-11-19T12:04:50;25.38;;;3.85;;
19004;SDS011;9635;52.078;8.648;2023-11-19T12:10:06;24.20;;;4.20;;
19004;SDS011;9635;52.078;8.648;2023-11-19T12:15:13;34.83;;;5.70;;
19004;SDS011;9635;52.078;8.648;2023-11-19T12:20:17;34.58;;;4.63;;
19004;SDS011;9635;52.078;8.648;2023-11-19T12:25:25;31.33;;;5.78;;
19004;SDS011;9635;52.078;8.648;2023-11-19T12:30:28;24.88;;;6.25;;
19004;SDS011;9635;52.078;8.648;2023-11-19T12:35:32;34.25;;;5.95;;
19004;SDS011;9635;52.078;8.648;2023-11-19T12:40:36;23.95;;;5.53;;
19004;SDS011;9635;52.078;8.648;2023-11-19T12:45:39;36.17;;;6.88;;
19004;SDS011;9635;52.078;8.648;2023-11-19T12:50:51;32.20;;;4.82;;
19004;SDS011;9635;52.078;8.648;2023-11-19T12:55:59;24.58;;;4.20;;
19004;SDS011;9635;52.078;8.648;2023-11-19T13:01:10;34.42;;;5.85;;
19004;SDS011;9635;52.078;8.648;2023-11-19T13:06:19;27.88;;;4.28;;
19004;SDS011;9635;52.078;8.648;2023-11-19T13:11:33;23.60;;;4.63;;
19004;SDS011;9635;52.078;8.648;2023-11-19T13:16:37;29.17;;;3.45;;
19004;SDS011;9635;52.078;8.648;2023-11-19T13:21:41;31.70;;;4.30;;
19004;SDS011;9635;52.078;8.648;2023-11-19T13:26:48;36.03;;;5.72;;
19004;SDS011;9635;52.078;8.648;2023-11-19T13:31:51;20.52;;;4.60;;
19004;SDS011;9635;52.078;8.648;2023-11-19T13:36:55;21.77;;;4.43;;
19004;SDS011;9635;52.078;8.648;2023-11-19T13:41:59;35.47;;;4.57;;
19004;SDS011;9635;52.078;8.648;2023-11-19T13:47:05;22.42;;;4.22;;
19004;SDS011;9635;52.078;8.648;2023-11-19T13:52:08;26.58;;;4.32;;
19004;SDS011;9635;52.078;8.648;2023-11-19T13:57:13;32.67;;;4.38;;
19004;SDS011;9635;52.078;8.648;2023-11-19T14:02:16;15.73;;;3.65;;
19004;SDS011;9635;52.078;8.648;2023-11-19T14:07:19;22.33;;;3.60;;
19004;SDS011;9635;52.078;8.648;2023-11-19T14:12:23;25.58;;;4.40;;
19004;SDS011;9635;52.078;8.648;2023-11-19T14:17:26;20.02;;;3.50;;
19004;SDS011;9635;52.078;8.648;2023-11-19T14:22:29;24.48;;;3.38;;
19004;SDS011;9635;52.078;8.648;2023-11-19T14:27:33;22.48;;;3.78;;
19004;SDS011;9635;52.078;8.648;2023-11-19T14:32:36;32.65;;;6.00;;
19004;SDS011;9635;52.078;8.648;2023-11-19T14:37:40;22.08;;;3.10;;
19004;SDS011;9635;52.078;8.648;2023-11-19T14:42:44;26.45;;;3.95;;
19004;SDS011;9635;52.078;8.648;2023-11-19T14:47:47;22.35;;;4.60;;
19004;SDS011;9635;52.078;8.648;2023-11-19T14:52:50;27.50;;;4.45;;
19004;SDS011;9635;52.078;8.648;2023-11-19T14:57:55;15.43;;;3.00;;
19004;SDS011;9635;52.078;8.648;2023-11-19T15:03:09;23.52;;;4.32;;
19004;SDS011;9635;52.078;8.648;2023-11-19T15:08:13;12.18;;;3.28;;
19004;SDS011;9635;52.078;8.648;2023-11-19T15:13:18;14.20;;;3.25;;
19004;SDS011;9635;52.078;8.648;2023-11-19T15:18:21;21.45;;;3.83;;
19004;SDS011;9635;52.078;8.648;2023-11-19T15:23:24;21.25;;;3.40;;
19004;SDS011;9635;52.078;8.648;2023-11-19T15:28:28;18.52;;;3.75;;
19004;SDS011;9635;52.078;8.648;2023-11-19T15:33:31;17.30;;;3.15;;
19004;SDS011;9635;52.078;8.648;2023-11-19T15:38:34;13.32;;;2.72;;
19004;SDS011;9635;52.078;8.648;2023-11-19T15:43:55;14.65;;;3.20;;
19004;SDS011;9635;52.078;8.648;2023-11-19T15:48:58;19.05;;;3.45;;
19004;SDS011;9635;52.078;8.648;2023-11-19T15:54:00;18.65;;;4.18;;
19004;SDS011;9635;52.078;8.648;2023-11-19T15:59:05;20.90;;;4.15;;
19004;SDS011;9635;52.078;8.648;2023-11-19T16:04:09;22.25;;;3.70;;
19004;SDS011;9635;52.078;8.648;2023-11-19T16:09:12;22.08;;;4.47;;
19004;SDS011;9635;52.078;8.648;2023-11-19T16:14:18;18.20;;;3.30;;
19004;SDS011;9635;52.078;8.648;2023-11-19T16:19:21;23.20;;;4.28;;
19004;SDS011;9635;52.078;8.648;2023-11-19T16:24:24;22.08;;;4.93;;
19004;SDS011;9635;52.078;8.648;2023-11-19T16:29:29;16.45;;;4.78;;
19004;SDS011;9635;52.078;8.648;2023-11-19T16:34:32;24.30;;;4.55;;
19004;SDS011;9635;52.078;8.648;2023-11-19T16:39:38;14.88;;;4.22;;
19004;SDS011;9635;52.078;8.648;2023-11-19T16:44:45;17.17;;;4.35;;
19004;SDS011;9635;52.078;8.648;2023-11-19T16:49:48;24.85;;;5.00;;
19004;SDS011;9635;52.078;8.648;2023-11-19T16:54:54;24.60;;;5.95;;
19004;SDS011;9635;52.078;8.648;2023-11-19T16:59:58;15.50;;;4.47;;
19004;SDS011;9635;52.078;8.648;2023-11-19T17:05:01;21.27;;;4.85;;
19004;SDS011;9635;52.078;8.648;2023-11-19T17:10:05;25.20;;;6.03;;
19004;SDS011;9635;52.078;8.648;2023-11-19T17:15:11;22.40;;;4.90;;
19004;SDS011;9635;52.078;8.648;2023-11-19T17:20:14;21.25;;;5.97;;
19004;SDS011;9635;52.078;8.648;2023-11-19T17:25:17;19.83;;;4.38;;
19004;SDS011;9635;52.078;8.648;2023-11-19T17:30:22;13.52;;;3.30;;
19004;SDS011;9635;52.078;8.648;2023-11-19T17:35:25;22.77;;;5.10;;
19004;SDS011;9635;52.078;8.648;2023-11-19T17:40:28;20.63;;;3.63;;
19004;SDS011;9635;52.078;8.648;2023-11-19T17:45:32;19.20;;;4.38;;
19004;SDS011;9635;52.078;8.648;2023-11-19T17:50:37;14.38;;;4.07;;
19004;SDS011;9635;52.078;8.648;2023-11-19T17:55:40;14.60;;;2.97;;
19004;SDS011;9635;52.078;8.648;2023-11-19T18:00:44;6.82;;;1.83;;
19004;SDS011;9635;52.078;8.648;2023-11-19T18:05:47;27.95;;;4.43;;
19004;SDS011;9635;52.078;8.648;2023-11-19T18:10:50;19.23;;;3.30;;
19004;SDS011;9635;52.078;8.648;2023-11-19T18:15:55;15.07;;;4.93;;
19004;SDS011;9635;52.078;8.648;2023-11-19T18:20:57;9.38;;;2.85;;
19004;SDS011;9635;52.078;8.648;2023-11-19T18:26:00;19.63;;;5.55;;
19004;SDS011;9635;52.078;8.648;2023-11-19T18:31:05;20.50;;;5.22;;
19004;SDS011;9635;52.078;8.648;2023-11-19T18:36:09;20.55;;;5.57;;
19004;SDS011;9635;52.078;8.648;2023-11-19T18:41:13;22.42;;;5.90;;
19004;SDS011;9635;52.078;8.648;2023-11-19T18:46:17;19.05;;;5.53;;
19004;SDS011;9635;52.078;8.648;2023-11-19T18:51:20;21.75;;;6.22;;
19004;SDS011;9635;52.078;8.648;2023-11-19T18:56:23;17.15;;;5.43;;
19004;SDS011;9635;52.078;8.648;2023-11-19T19:01:27;18.15;;;5.15;;
19004;SDS011;9635;52.078;8.648;2023-11-19T19:06:32;20.20;;;6.32;;
19004;SDS011;9635;52.078;8.648;2023-11-19T19:11:36;15.68;;;6.50;;
19004;SDS011;9635;52.078;8.648;2023-11-19T19:16:41;19.98;;;6.47;;
19004;SDS011;9635;52.078;8.648;2023-11-19T19:21:43;19.15;;;5.43;;
19004;SDS011;9635;52.078;8.648;2023-11-19T19:26:47;21.63;;;7.18;;
19004;SDS011;9635;52.078;8.648;2023-11-19T19:31:51;22.63;;;6.25;;
19004;SDS011;9635;52.078;8.648;2023-11-19T19:36:54;17.38;;;5.18;;
19004;SDS011;9635;52.078;8.648;2023-11-19T19:41:59;24.17;;;6.35;;
19004;SDS011;9635;52.078;8.648;2023-11-19T19:47:04;16.65;;;7.88;;
19004;SDS011;9635;52.078;8.648;2023-11-19T19:52:07;21.08;;;7.20;;
19004;SDS011;9635;52.078;8.648;2023-11-19T19:57:10;19.95;;;7.70;;
19004;SDS011;9635;52.078;8.648;2023-11-19T20:02:14;17.60;;;9.27;;
19004;SDS011;9635;52.078;8.648;2023-11-19T20:07:17;13.20;;;7.03;;
19004;SDS011;9635;52.078;8.648;2023-11-19T20:12:20;24.85;;;8.05;;
19004;SDS011;9635;52.078;8.648;2023-11-19T20:17:24;14.18;;;6.40;;
19004;SDS011;9635;52.078;8.648;2023-11-19T20:22:27;16.92;;;6.75;;
19004;SDS011;9635;52.078;8.648;2023-11-19T20:27:30;17.33;;;7.40;;
19004;SDS011;9635;52.078;8.648;2023-11-19T20:32:34;13.02;;;4.47;;
19004;SDS011;9635;52.078;8.648;2023-11-19T20:37:39;13.48;;;5.43;;
19004;SDS011;9635;52.078;8.648;2023-11-19T20:42:42;15.73;;;6.18;;
19004;SDS011;9635;52.078;8.648;2023-11-19T20:47:46;11.18;;;5.22;;
19004;SDS011;9635;52.078;8.648;2023-11-19T20:52:51;17.00;;;6.43;;
19004;SDS011;9635;52.078;8.648;2023-11-19T20:57:54;18.27;;;6.95;;
19004;SDS011;9635;52.078;8.648;2023-11-19T21:03:00;19.35;;;6.03;;
19004;SDS011;9635;52.078;8.648;2023-11-19T21:08:03;13.55;;;4.72;;
19004;SDS011;9635;52.078;8.648;2023-11-19T21:13:07;13.93;;;4.80;;
19004;SDS011;9635;52.078;8.648;2023-11-19T21:18:11;9.52;;;5.30;;
19004;SDS011;9635;52.078;8.648;2023-11-19T21:23:14;10.85;;;4.45;;
19004;SDS011;9635;52.078;8.648;2023-11-19T21:28:17;15.90;;;4.53;;
19004;SDS011;9635;52.078;8.648;2023-11-19T21:33:22;10.85;;;4.00;;
19004;SDS011;9635;52.078;8.648;2023-11-19T21:38:25;13.40;;;4.38;;
19004;SDS011;9635;52.078;8.648;2023-11-19T21:43:29;8.52;;;3.70;;
19004;SDS011;9635;52.078;8.648;2023-11-19T21:48:33;7.45;;;4.15;;
19004;SDS011;9635;52.078;8.648;2023-11-19T21:53:36;7.95;;;3.88;;
19004;SDS011;9635;52.078;8.648;2023-11-19T21:58:41;6.72;;;2.97;;
19004;SDS011;9635;52.078;8.648;2023-11-19T22:03:45;8.38;;;3.60;;
19004;SDS011;9635;52.078;8.648;2023-11-19T22:08:48;4.90;;;2.53;;
19004;SDS011;9635;52.078;8.648;2023-11-19T22:13:51;5.90;;;2.78;;
19004;SDS011;9635;52.078;8.648;2023-11-19T22:18:57;5.03;;;2.50;;
19004;SDS011;9635;52.078;8.648;2023-11-19T22:24:00;5.45;;;2.80;;
19004;SDS011;9635;52.078;8.648;2023-11-19T22:29:03;3.90;;;1.65;;
19004;SDS011;9635;52.078;8.648;2023-11-19T22:34:08;2.83;;;2.40;;
19004;SDS011;9635;52.078;8.648;2023-11-19T22:39:12;2.38;;;2.15;;
19004;SDS011;9635;52.078;8.648;2023-11-19T22:44:15;2.25;;;1.95;;
19004;SDS011;9635;52.078;8.648;2023-11-19T22:49:20;4.68;;;2.05;;
19004;SDS011;9635;52.078;8.648;2023-11-19T22:54:23;3.10;;;2.80;;
19004;SDS011;9635;52.078;8.648;2023-11-19T22:59:26;8.57;;;3.33;;
19004;SDS011;9635;52.078;8.648;2023-11-19T23:04:30;3.75;;;1.98;;
19004;SDS011;9635;52.078;8.648;2023-11-19T23:09:33;2.55;;;2.05;;
19004;SDS011;9635;52.078;8.648;2023-11-19T23:14:36;3.97;;;3.20;;
19004;SDS011;9635;52.078;8.648;2023-11-19T23:19:40;4.70;;;4.22;;
19004;SDS011;9635;52.078;8.648;2023-11-19T23:24:43;11.57;;;6.10;;
19004;SDS011;9635;52.078;8.648;2023-11-19T23:29:47;8.20;;;5.82;;
19004;SDS011;9635;52.078;8.648;2023-11-19T23:34:51;10.93;;;7.25;;
19004;SDS011;9635;52.078;8.648;2023-11-19T23:39:54;11.73;;;7.85;;
19004;SDS011;9635;52.078;8.648;2023-11-19T23:44:57;10.23;;;7.90;;
19004;SDS011;9635;52.078;8.648;2023-11-19T23:50:02;9.45;;;7.40;;
19004;SDS011;9635;52.078;8.648;2023-11-19T23:55:06;6.35;;;5.32;;
